FCYRRS VNRT-VNLK
Flight info
| Callsign | FCYRRS |
|---|---|
| Flight time | N/A |
| Altitude | 21000 |
| Route | VNRT VNLK |
| Aircraft | C208/L-SDE3/L |
Departure
| Time | 2025-01-22 20:28 |
|---|---|
| Airport | Rumjatar Airport (VNRT) |
Arrival
| Time | N/A |
|---|---|
| Airport | Tenzing-Hillary Airport (VNLK) |
| Time | Latitude | Longitude | Altitude | Speed | Heading |
|---|---|---|---|---|---|
| 2025-01-22 20:25 | 27.68748 | 86.73075 | 9407 ft | 40 kts | 240° |
| 2025-01-22 20:25 | 27.67067 | 86.71214 | 9571 ft | 162 kts | 207° |
| 2025-01-22 20:26 | 27.63549 | 86.70032 | 9662 ft | 188 kts | 200° |
| 2025-01-22 20:27 | 27.61043 | 86.69278 | 9754 ft | 187 kts | 199° |
| 2025-01-22 20:27 | 27.58446 | 86.68650 | 9688 ft | 190 kts | 191° |
| 2025-01-22 20:28 | 27.56007 | 86.69919 | 9647 ft | 204 kts | 148° |
| 2025-01-22 20:28 | 27.53406 | 86.70605 | 9164 ft | 206 kts | 198° |
| 2025-01-22 20:28 | 27.52124 | 86.70056 | 9301 ft | 188 kts | 208° |
| 2025-01-22 20:29 | 27.48395 | 86.69342 | 8807 ft | 205 kts | 144° |
| 2025-01-22 20:29 | 27.47537 | 86.70565 | 8809 ft | 194 kts | 117° |
| 2025-01-22 20:30 | 27.46852 | 86.76054 | 9363 ft | 187 kts | 72° |
| 2025-01-22 20:31 | 27.47204 | 86.77490 | 9414 ft | 192 kts | 71° |
| 2025-01-22 20:31 | 27.47967 | 86.80347 | 9672 ft | 187 kts | 71° |
| 2025-01-22 20:32 | 27.48930 | 86.82957 | 10293 ft | 170 kts | 57° |
| 2025-01-22 20:32 | 27.50152 | 86.84867 | 11231 ft | 148 kts | 38° |
| 2025-01-22 20:33 | 27.51032 | 86.86801 | 12099 ft | 160 kts | 103° |
| 2025-01-22 20:33 | 27.50003 | 86.89310 | 12530 ft | 173 kts | 119° |
| 2025-01-22 20:34 | 27.48672 | 86.91621 | 12852 ft | 187 kts | 139° |
| 2025-01-22 20:34 | 27.47844 | 86.92796 | 12906 ft | 195 kts | 126° |
| 2025-01-22 20:35 | 27.45786 | 86.97086 | 12464 ft | 227 kts | 107° |
| 2025-01-22 20:35 | 27.45995 | 87.02236 | 12149 ft | 227 kts | 87° |
| 2025-01-22 20:36 | 27.45920 | 87.04015 | 11827 ft | 229 kts | 103° |
| 2025-01-22 20:36 | 27.44458 | 87.07265 | 10494 ft | 232 kts | 124° |
| 2025-01-22 20:37 | 27.42904 | 87.10076 | 9524 ft | 196 kts | 127° |
| 2025-01-22 20:37 | 27.41351 | 87.12593 | 8040 ft | 192 kts | 127° |
| 2025-01-22 20:38 | 27.39760 | 87.14805 | 6907 ft | 173 kts | 130° |
| 2025-01-22 20:38 | 27.37456 | 87.17443 | 5944 ft | 144 kts | 146° |
| 2025-01-22 20:39 | 27.35834 | 87.18823 | 5247 ft | 144 kts | 143° |
| 2025-01-22 20:39 | 27.34905 | 87.19288 | 5302 ft | 156 kts | 179° |
| 2025-01-22 20:40 | 27.33137 | 87.17710 | 5074 ft | 177 kts | 256° |
| 2025-01-22 20:40 | 27.34213 | 87.15509 | 5051 ft | 181 kts | 335° |
| 2025-01-22 20:40 | 27.35409 | 87.15182 | 4948 ft | 166 kts | 352° |
| 2025-01-22 20:41 | 27.38320 | 87.14774 | 4335 ft | 139 kts | 46° |
| 2025-01-22 20:42 | 27.37795 | 87.16641 | 3320 ft | 134 kts | 142° |
| 2025-01-22 20:42 | 27.37059 | 87.17163 | 3222 ft | 120 kts | 153° |
| 2025-01-22 20:43 | 27.34558 | 87.18225 | 2493 ft | 166 kts | 165° |
| 2025-01-22 20:43 | 27.32946 | 87.18777 | 1991 ft | 95 kts | 162° |
| 2025-01-22 20:44 | 27.31787 | 87.19279 | 1412 ft | 79 kts | 155° |
| 2025-01-22 20:44 | 27.31434 | 87.19539 | 1387 ft | 10 kts | 350° |
| 2025-01-22 20:44 | 27.31518 | 87.19509 | 1387 ft | 0 kts | 337° |
| 2025-01-22 20:54 | 27.31554 | 87.19464 | 1387 ft | 6 kts | 255° |
| 2025-01-22 20:54 | 27.31224 | 87.19615 | 1386 ft | 30 kts | 152° |
| 2025-01-22 20:55 | 27.31098 | 87.19683 | 1386 ft | 0 kts | 159° |
| 2025-01-22 20:56 | 27.31055 | 87.19625 | 1384 ft | 10 kts | 311° |
| 2025-01-22 20:56 | 27.31499 | 87.19432 | 1389 ft | 96 kts | 335° |
| 2025-01-22 20:57 | 27.32319 | 87.18236 | 2395 ft | 95 kts | 283° |
| 2025-01-22 20:57 | 27.32632 | 87.16576 | 3309 ft | 116 kts | 278° |
| 2025-01-22 20:57 | 27.32714 | 87.15659 | 3789 ft | 115 kts | 273° |
| 2025-01-22 20:58 | 27.32801 | 87.12789 | 5080 ft | 127 kts | 275° |
| 2025-01-22 20:59 | 27.32906 | 87.10887 | 6363 ft | 118 kts | 275° |
| 2025-01-22 20:59 | 27.33140 | 87.08860 | 7084 ft | 140 kts | 278° |
| 2025-01-22 21:00 | 27.33526 | 87.06763 | 7790 ft | 142 kts | 284° |
| 2025-01-22 21:00 | 27.34092 | 87.04552 | 8420 ft | 135 kts | 286° |
| 2025-01-22 21:01 | 27.34617 | 87.02698 | 8648 ft | 124 kts | 288° |
| 2025-01-22 21:01 | 27.35846 | 87.01677 | 9218 ft | 133 kts | 350° |
| 2025-01-22 21:02 | 27.37799 | 87.01769 | 9334 ft | 151 kts | 359° |
| 2025-01-22 21:02 | 27.39773 | 87.01432 | 9502 ft | 133 kts | 311° |
| 2025-01-22 21:03 | 27.40310 | 86.99502 | 9744 ft | 131 kts | 278° |
| 2025-01-22 21:03 | 27.40639 | 86.97369 | 9674 ft | 148 kts | 282° |
| 2025-01-22 21:04 | 27.41069 | 86.95278 | 10158 ft | 112 kts | 278° |
| 2025-01-22 21:04 | 27.41219 | 86.93650 | 10516 ft | 106 kts | 273° |
| 2025-01-22 21:05 | 27.41100 | 86.91950 | 10718 ft | 114 kts | 265° |
| 2025-01-22 21:05 | 27.40742 | 86.91098 | 10525 ft | 136 kts | 232° |
| 2025-01-22 21:06 | 27.38491 | 86.88338 | 9734 ft | 174 kts | 235° |
| 2025-01-22 21:06 | 27.37125 | 86.86117 | 9158 ft | 172 kts | 244° |
| 2025-01-22 21:07 | 27.36343 | 86.83534 | 8524 ft | 177 kts | 254° |
| 2025-01-22 21:07 | 27.35070 | 86.81169 | 7957 ft | 174 kts | 236° |
| 2025-01-22 21:08 | 27.33606 | 86.79042 | 7164 ft | 166 kts | 236° |
| 2025-01-22 21:08 | 27.32222 | 86.76910 | 6257 ft | 172 kts | 237° |
| 2025-01-22 21:08 | 27.31579 | 86.75776 | 5837 ft | 170 kts | 239° |
| 2025-01-22 21:09 | 27.29869 | 86.72480 | 5114 ft | 155 kts | 239° |
| 2025-01-22 21:10 | 27.28736 | 86.70418 | 4822 ft | 170 kts | 239° |
| 2025-01-22 21:10 | 27.26410 | 86.67516 | 5389 ft | 156 kts | 227° |
| 2025-01-22 21:11 | 27.26047 | 86.66353 | 5318 ft | 174 kts | 276° |
| 2025-01-22 21:11 | 27.26744 | 86.63762 | 5466 ft | 173 kts | 288° |
| 2025-01-22 21:12 | 27.27474 | 86.61206 | 5720 ft | 168 kts | 289° |
| 2025-01-22 21:12 | 27.28212 | 86.58910 | 6168 ft | 161 kts | 284° |
| 2025-01-22 21:13 | 27.28696 | 86.56683 | 5727 ft | 109 kts | 271° |
| 2025-01-22 21:13 | 27.29319 | 86.55275 | 4506 ft | 108 kts | 340° |
| 2025-01-22 21:13 | 27.29951 | 86.55153 | 4471 ft | 73 kts | 355° |
| 2025-01-22 21:14 | 27.30370 | 86.55064 | 4541 ft | 0 kts | 259° |